createdAt,value
2023-02-03T00:00:28.766Z,3.53
2023-02-03T00:03:11.769Z,3.54
2023-02-03T00:05:55.503Z,3.54
2023-02-03T00:08:39.952Z,3.56
2023-02-03T00:11:23.046Z,3.56
2023-02-03T00:14:08.043Z,3.57
2023-02-03T00:16:51.221Z,3.56
2023-02-03T00:19:34.209Z,3.55
2023-02-03T00:22:17.107Z,3.58
2023-02-03T00:25:01.396Z,3.58
2023-02-03T00:27:44.726Z,3.59
2023-02-03T00:30:28.090Z,3.48
2023-02-03T00:33:11.168Z,3.52
2023-02-03T00:35:54.108Z,3.53
2023-02-03T00:38:37.028Z,3.50
2023-02-03T00:41:22.518Z,3.47
2023-02-03T00:44:05.700Z,3.48
2023-02-03T00:46:48.652Z,3.49
2023-02-03T00:49:31.651Z,3.52
2023-02-03T00:52:14.567Z,3.53
2023-02-03T00:54:57.599Z,3.54
2023-02-03T00:57:41.907Z,3.55
2023-02-03T01:00:26.829Z,3.58
2023-02-03T01:03:11.576Z,3.61
2023-02-03T01:05:54.466Z,3.63
2023-02-03T01:08:37.376Z,3.63
2023-02-03T01:11:23.451Z,3.67
2023-02-03T01:14:07.786Z,3.70
2023-02-03T01:16:52.413Z,3.70
2023-02-03T01:19:35.430Z,3.70
2023-02-03T01:22:18.399Z,3.74
2023-02-03T01:25:01.269Z,3.74
2023-02-03T01:27:44.278Z,3.76
2023-02-03T01:30:29.064Z,3.77
2023-02-03T01:33:12.165Z,3.77
2023-02-03T01:35:55.137Z,3.80
2023-02-03T01:38:38.977Z,3.80
2023-02-03T01:41:23.978Z,3.82
2023-02-03T01:44:40.118Z,3.82
2023-02-03T01:47:32.489Z,3.83
2023-02-03T01:50:20.301Z,3.84
2023-02-03T01:53:07.865Z,3.83
2023-02-03T01:55:51.714Z,3.83
2023-02-03T01:58:39.117Z,3.84
2023-02-03T02:01:22.086Z,3.84
2023-02-03T02:04:07.279Z,3.84
2023-02-03T02:06:51.790Z,3.86
2023-02-03T02:09:35.339Z,3.86
2023-02-03T02:12:18.425Z,3.86
2023-02-03T02:15:01.554Z,3.86
2023-02-03T02:17:55.253Z,3.85
2023-02-03T02:21:17.491Z,3.84
2023-02-03T02:24:32.379Z,3.85
2023-02-03T02:27:27.609Z,3.85
2023-02-03T02:30:40.294Z,3.88
2023-02-03T02:33:37.619Z,3.89
2023-02-03T02:36:34.294Z,3.89
2023-02-03T02:39:24.198Z,3.90
2023-02-03T02:42:12.353Z,3.89
2023-02-03T02:45:00.411Z,3.87
2023-02-03T02:47:45.184Z,3.89
2023-02-03T02:50:35.540Z,3.89
2023-02-03T02:53:22.450Z,3.90
2023-02-03T02:56:11.680Z,3.89
2023-02-03T02:58:57.033Z,3.88
2023-02-03T03:01:41.258Z,3.91
2023-02-03T03:04:28.463Z,3.92
2023-02-03T03:07:17.733Z,3.92
2023-02-03T03:10:03.934Z,3.95
2023-02-03T03:12:51.642Z,3.95
2023-02-03T03:15:37.114Z,3.98
2023-02-03T03:18:25.582Z,4.02
2023-02-03T03:21:11.137Z,4.02
2023-02-03T03:24:00.448Z,4.03
2023-02-03T03:26:49.006Z,4.06
2023-02-03T03:29:37.149Z,4.08
2023-02-03T03:32:20.047Z,4.08
2023-02-03T03:35:04.017Z,4.09
2023-02-03T03:37:52.255Z,4.08
2023-02-03T03:40:41.531Z,4.10
2023-02-03T03:43:29.206Z,4.11
2023-02-03T03:46:16.034Z,4.13
2023-02-03T03:49:03.218Z,4.11
2023-02-03T03:51:50.417Z,4.13
2023-02-03T03:54:34.888Z,4.14
2023-02-03T03:57:24.759Z,4.16
2023-02-03T04:00:10.723Z,4.16
2023-02-03T04:03:01.162Z,4.17
2023-02-03T04:05:44.434Z,4.19
2023-02-03T04:08:27.313Z,4.21
2023-02-03T04:11:10.204Z,4.23
2023-02-03T04:13:54.355Z,4.20
2023-02-03T04:16:37.124Z,4.22
2023-02-03T04:19:20.137Z,4.21
2023-02-03T04:22:02.909Z,4.22
2023-02-03T04:24:45.689Z,4.24
2023-02-03T04:27:28.614Z,4.21
2023-02-03T04:30:14.507Z,4.21
2023-02-03T04:32:57.328Z,4.21
2023-02-03T04:35:40.155Z,4.23
2023-02-03T04:38:23.008Z,4.25
2023-02-03T04:41:06.049Z,4.26
2023-02-03T04:43:49.328Z,4.26
2023-02-03T04:46:33.848Z,4.24
2023-02-03T04:49:17.700Z,4.19
2023-02-03T04:52:00.550Z,4.24
2023-02-03T04:54:43.391Z,4.23
2023-02-03T04:57:26.319Z,4.10
2023-02-03T05:00:10.721Z,4.13
2023-02-03T05:02:54.974Z,4.26
2023-02-03T05:05:37.866Z,4.27
2023-02-03T05:08:20.655Z,4.25
2023-02-03T05:11:04.717Z,4.30
2023-02-03T05:13:48.647Z,4.33
2023-02-03T05:16:31.567Z,4.27
2023-02-03T05:19:15.875Z,4.36
2023-02-03T05:21:58.638Z,4.30
2023-02-03T05:24:41.455Z,4.25
2023-02-03T05:27:24.336Z,4.37
2023-02-03T05:30:08.266Z,4.37
2023-02-03T05:32:51.171Z,4.27
2023-02-03T05:35:35.372Z,4.25
2023-02-03T05:38:18.346Z,4.10
2023-02-03T05:41:18.821Z,4.25
2023-02-03T05:44:01.700Z,4.18
2023-02-03T05:46:44.512Z,4.15
2023-02-03T05:49:27.587Z,4.27
2023-02-03T05:52:11.943Z,4.15
2023-02-03T05:54:54.951Z,4.02
2023-02-03T05:57:37.744Z,4.16
2023-02-03T06:00:22.394Z,4.18
2023-02-03T06:03:05.381Z,3.67
2023-02-03T06:05:48.208Z,3.89
2023-02-03T06:08:32.514Z,4.05
2023-02-03T06:11:15.392Z,3.95
2023-02-03T06:13:59.507Z,4.16
2023-02-03T06:16:42.392Z,4.05
2023-02-03T06:19:25.281Z,3.89
2023-02-03T06:22:08.084Z,3.97
2023-02-03T06:24:52.215Z,4.11
2023-02-03T06:27:35.114Z,4.15
2023-02-03T06:30:20.321Z,4.02
2023-02-03T06:33:03.161Z,4.04
2023-02-03T06:35:46.108Z,4.22
2023-02-03T06:38:28.912Z,4.10
2023-02-03T06:41:13.093Z,4.03
2023-02-03T06:43:55.881Z,3.97
2023-02-03T06:46:38.856Z,3.77
2023-02-03T06:49:21.631Z,3.95
2023-02-03T06:52:04.652Z,4.04
2023-02-03T06:54:47.446Z,4.05
2023-02-03T06:57:31.631Z,4.13
2023-02-03T07:00:18.570Z,4.04
2023-02-03T07:03:02.370Z,4.13
2023-02-03T07:05:45.303Z,4.08
2023-02-03T07:08:28.119Z,4.05
2023-02-03T07:11:11.142Z,4.15
2023-02-03T07:13:55.361Z,4.20
2023-02-03T07:16:38.159Z,4.16
2023-02-03T07:19:21.007Z,4.30
2023-02-03T07:22:03.810Z,4.18
2023-02-03T07:24:46.616Z,4.31
2023-02-03T07:27:29.769Z,4.30
2023-02-03T07:30:15.151Z,4.26
2023-02-03T07:32:57.947Z,4.37
2023-02-03T07:35:40.706Z,4.24
2023-02-03T07:38:24.736Z,4.34
2023-02-03T07:41:08.383Z,4.26
2023-02-03T07:43:51.226Z,4.31
2023-02-03T07:46:35.469Z,4.23
2023-02-03T07:49:18.319Z,4.19
2023-02-03T07:52:01.125Z,4.35
2023-02-03T07:54:44.036Z,4.28
2023-02-03T07:57:27.471Z,4.39
2023-02-03T08:00:12.057Z,4.35
2023-02-03T08:02:58.901Z,4.38
2023-02-03T08:05:41.761Z,4.55
2023-02-03T08:08:24.580Z,4.52
2023-02-03T08:11:07.423Z,4.50
2023-02-03T08:13:50.275Z,4.49
2023-02-03T08:16:33.190Z,4.44
2023-02-03T08:19:17.466Z,4.52
2023-02-03T08:22:00.302Z,4.26
2023-02-03T08:24:45.704Z,4.44
2023-02-03T08:27:28.534Z,4.52
2023-02-03T08:30:14.361Z,4.32
2023-02-03T08:32:57.192Z,4.30
2023-02-03T08:35:41.436Z,4.19
2023-02-03T08:38:24.243Z,4.36
2023-02-03T08:41:10.607Z,4.41
2023-02-03T08:43:54.138Z,4.48
2023-02-03T08:46:37.565Z,4.30
2023-02-03T08:49:21.157Z,4.43
2023-02-03T08:52:06.156Z,4.49
2023-02-03T08:54:49.613Z,4.43
2023-02-03T08:57:34.047Z,4.29
2023-02-03T09:00:17.760Z,4.24
2023-02-03T09:03:00.596Z,4.56
2023-02-03T09:05:43.356Z,4.41
2023-02-03T09:08:27.619Z,4.58
2023-02-03T09:11:11.228Z,4.59
2023-02-03T09:13:54.050Z,4.72
2023-02-03T09:16:36.970Z,4.64
2023-02-03T09:19:20.012Z,4.68
2023-02-03T09:22:03.114Z,4.75
2023-02-03T09:24:48.659Z,4.68
2023-02-03T09:27:31.466Z,4.80
2023-02-03T09:30:15.077Z,4.70
2023-02-03T09:32:58.943Z,4.60
2023-02-03T09:35:42.020Z,4.57
2023-02-03T09:38:25.542Z,4.52
2023-02-03T09:41:22.956Z,4.59
2023-02-03T09:44:13.862Z,4.75
2023-02-03T09:47:00.996Z,4.77
2023-02-03T09:49:47.196Z,4.68
2023-02-03T09:52:33.611Z,4.75
2023-02-03T09:55:27.693Z,4.69
2023-02-03T09:58:13.904Z,4.67
2023-02-03T10:01:00.132Z,4.80
2023-02-03T10:03:49.037Z,4.76
2023-02-03T10:06:37.186Z,4.66
2023-02-03T10:09:29.463Z,4.69
2023-02-03T10:12:46.652Z,4.69
2023-02-03T10:15:45.162Z,4.82
2023-02-03T10:18:33.195Z,4.79
2023-02-03T10:21:25.067Z,4.80
2023-02-03T10:24:13.815Z,4.67
2023-02-03T10:26:56.835Z,4.67
2023-02-03T10:29:43.940Z,4.72
2023-02-03T10:32:28.902Z,4.80
2023-02-03T10:35:13.678Z,4.80
2023-02-03T10:37:59.809Z,4.84
2023-02-03T10:40:42.657Z,4.76
2023-02-03T10:43:43.200Z,4.69
2023-02-03T10:46:30.455Z,4.73
2023-02-03T10:49:16.451Z,4.68
2023-02-03T10:52:04.830Z,4.63
2023-02-03T10:54:47.973Z,4.60
2023-02-03T10:57:31.361Z,4.61
2023-02-03T11:00:24.200Z,4.67
2023-02-03T11:03:09.607Z,4.49
2023-02-03T11:06:08.622Z,4.47
2023-02-03T11:08:52.816Z,4.47
2023-02-03T11:11:37.339Z,4.60
2023-02-03T11:14:19.995Z,4.60
2023-02-03T11:17:08.383Z,4.56
2023-02-03T11:19:53.751Z,4.59
2023-02-03T11:22:40.101Z,4.52
2023-02-03T11:25:29.823Z,4.36
2023-02-03T11:28:14.127Z,4.50
2023-02-03T11:30:59.038Z,4.58
2023-02-03T11:33:41.897Z,4.59
2023-02-03T11:36:28.477Z,4.48
2023-02-03T11:39:20.524Z,4.59
2023-02-03T11:42:03.680Z,4.66
2023-02-03T11:44:46.591Z,4.58
2023-02-03T11:47:29.416Z,4.57
2023-02-03T11:50:25.984Z,4.60
2023-02-03T11:53:24.229Z,4.46
2023-02-03T11:56:21.249Z,4.60
2023-02-03T11:59:39.749Z,4.65
2023-02-03T12:02:54.997Z,4.56
2023-02-03T12:05:57.776Z,4.76
2023-02-03T12:08:58.391Z,4.70
2023-02-03T12:12:06.810Z,4.70
2023-02-03T12:15:00.674Z,4.79
2023-02-03T12:17:56.116Z,4.64
2023-02-03T12:20:49.159Z,4.74
2023-02-03T12:23:42.271Z,4.66
2023-02-03T12:26:27.063Z,4.53
2023-02-03T12:29:14.447Z,4.71
2023-02-03T12:32:06.653Z,4.67
2023-02-03T12:34:54.926Z,4.67
2023-02-03T12:37:47.302Z,4.62
2023-02-03T12:40:37.071Z,4.79
2023-02-03T12:43:26.609Z,4.70
2023-02-03T12:46:15.840Z,4.56
2023-02-03T12:49:04.302Z,4.66
2023-02-03T12:51:51.531Z,4.71
2023-02-03T12:54:45.472Z,4.70
2023-02-03T12:57:31.769Z,4.68
2023-02-03T13:00:28.968Z,4.74
2023-02-03T13:03:26.010Z,4.83
2023-02-03T13:06:16.096Z,4.51
2023-02-03T13:09:03.873Z,4.64
2023-02-03T13:11:55.274Z,4.70
2023-02-03T13:14:43.928Z,4.77
2023-02-03T13:17:29.792Z,4.83
2023-02-03T13:20:20.467Z,4.89
2023-02-03T13:23:07.096Z,4.69
2023-02-03T13:26:06.554Z,4.69
2023-02-03T13:29:19.137Z,4.65
2023-02-03T13:32:16.834Z,4.71
2023-02-03T13:35:32.214Z,4.67
2023-02-03T13:38:29.301Z,4.70
2023-02-03T13:41:20.979Z,4.62
2023-02-03T13:44:05.225Z,4.42
2023-02-03T13:46:50.786Z,4.66
2023-02-03T13:49:36.133Z,4.77
2023-02-03T13:52:37.504Z,4.66
2023-02-03T13:55:31.892Z,4.72
2023-02-03T13:58:22.875Z,4.67
2023-02-03T14:01:28.511Z,4.52
2023-02-03T14:04:52.931Z,4.74
2023-02-03T14:07:40.686Z,4.78
2023-02-03T14:10:24.898Z,4.64
2023-02-03T14:13:21.329Z,4.84
2023-02-03T14:16:24.558Z,4.92
2023-02-03T14:19:10.616Z,4.67
2023-02-03T14:21:56.159Z,4.82
2023-02-03T14:24:44.328Z,4.98
2023-02-03T14:27:30.092Z,4.86
2023-02-03T14:30:16.726Z,4.68
2023-02-03T14:33:01.647Z,4.83
2023-02-03T14:35:44.614Z,4.83
2023-02-03T14:38:33.498Z,4.85
2023-02-03T14:41:22.693Z,4.93
2023-02-03T14:44:11.647Z,4.96
2023-02-03T14:47:08.758Z,5.05
2023-02-03T14:50:05.336Z,5.00
2023-02-03T14:53:09.141Z,5.02
2023-02-03T14:56:03.202Z,4.95
2023-02-03T14:58:51.450Z,4.99
2023-02-03T15:02:09.647Z,4.90
2023-02-03T15:05:13.281Z,5.00
2023-02-03T15:07:56.198Z,5.01
2023-02-03T15:10:43.465Z,4.93
2023-02-03T15:13:27.322Z,5.06
2023-02-03T15:16:19.560Z,5.11
2023-02-03T15:19:08.909Z,5.09
2023-02-03T15:21:51.846Z,5.12
2023-02-03T15:24:37.066Z,5.09
2023-02-03T15:27:24.515Z,5.18
2023-02-03T15:30:18.092Z,4.95
2023-02-03T15:33:08.112Z,4.83
2023-02-03T15:35:54.750Z,4.96
2023-02-03T15:38:41.354Z,4.99
2023-02-03T15:41:25.936Z,4.98
2023-02-03T15:44:13.469Z,4.92
2023-02-03T15:46:58.050Z,5.04
2023-02-03T15:49:43.396Z,5.12
2023-02-03T15:52:28.058Z,5.06
2023-02-03T15:55:20.646Z,5.06
2023-02-03T15:58:04.738Z,5.10
2023-02-03T16:00:51.526Z,4.95
2023-02-03T16:03:41.270Z,4.96
2023-02-03T16:06:29.743Z,4.83
2023-02-03T16:09:29.133Z,4.95
2023-02-03T16:12:19.959Z,4.97
2023-02-03T16:15:03.290Z,4.98
2023-02-03T16:17:46.147Z,5.13
2023-02-03T16:20:29.480Z,4.88
2023-02-03T16:23:22.762Z,4.88
2023-02-03T16:26:08.033Z,5.11
2023-02-03T16:29:15.995Z,5.07
2023-02-03T16:32:16.769Z,5.15
2023-02-03T16:35:16.914Z,5.12
2023-02-03T16:38:23.843Z,5.19
2023-02-03T16:41:35.355Z,5.15
2023-02-03T16:44:35.954Z,5.09
2023-02-03T16:47:42.987Z,5.06
2023-02-03T16:50:43.594Z,5.10
2023-02-03T16:53:28.216Z,5.02
2023-02-03T16:56:13.553Z,5.06
2023-02-03T16:58:56.381Z,5.04
2023-02-03T17:01:39.225Z,5.06
2023-02-03T17:04:22.141Z,5.08
2023-02-03T17:07:05.205Z,5.11
2023-02-03T17:09:48.058Z,5.11
2023-02-03T17:12:33.575Z,5.19
2023-02-03T17:15:16.393Z,5.08
2023-02-03T17:17:59.612Z,5.21
2023-02-03T17:20:43.211Z,4.98
2023-02-03T17:23:26.022Z,5.06
2023-02-03T17:26:09.269Z,5.03
2023-02-03T17:28:53.477Z,5.17
2023-02-03T17:31:36.350Z,5.28
2023-02-03T17:34:19.401Z,5.27
2023-02-03T17:37:02.231Z,5.33
2023-02-03T17:54:48.196Z,5.21
2023-02-03T17:57:32.356Z,5.25
2023-02-03T18:00:16.808Z,5.39
2023-02-03T18:03:00.959Z,5.38
2023-02-03T18:05:51.112Z,5.41
2023-02-03T18:08:33.974Z,5.26
2023-02-03T18:11:18.008Z,5.19
2023-02-03T18:14:01.610Z,5.21
2023-02-03T18:16:44.979Z,5.23
2023-02-03T18:19:29.179Z,5.28
2023-02-03T18:22:11.954Z,5.22
2023-02-03T18:24:55.596Z,5.21
2023-02-03T18:27:38.462Z,5.29
2023-02-03T18:30:21.838Z,5.24
2023-02-03T18:33:04.762Z,5.30
2023-02-03T18:35:48.941Z,5.33
2023-02-03T18:38:33.816Z,5.39
2023-02-03T18:41:18.888Z,5.05
2023-02-03T18:44:01.691Z,5.14
2023-02-03T18:46:44.530Z,5.31
2023-02-03T18:49:27.493Z,5.08
2023-02-03T18:52:11.956Z,5.19
2023-02-03T18:54:54.627Z,5.06
2023-02-03T18:57:37.581Z,5.36
2023-02-03T19:00:20.842Z,5.32
2023-02-03T19:03:03.804Z,5.33
2023-02-03T19:05:46.617Z,4.93
2023-02-03T19:08:30.797Z,5.08
2023-02-03T19:11:14.541Z,4.94
2023-02-03T19:13:57.368Z,5.30
2023-02-03T19:16:40.237Z,5.17
2023-02-03T19:19:23.062Z,5.45
2023-02-03T19:22:05.912Z,5.32
2023-02-03T19:24:50.058Z,5.29
2023-02-03T19:27:32.886Z,5.23
2023-02-03T19:30:15.754Z,5.26
2023-02-03T19:32:58.660Z,5.29
2023-02-03T19:35:42.618Z,5.43
2023-02-03T19:38:25.667Z,5.28
2023-02-03T19:41:11.799Z,5.27
2023-02-03T19:43:54.675Z,5.21
2023-02-03T19:46:38.498Z,5.25
2023-02-03T19:49:21.489Z,4.92
2023-02-03T19:52:05.341Z,4.98
2023-02-03T19:54:48.120Z,4.99
2023-02-03T19:57:32.531Z,4.94
2023-02-03T20:00:16.027Z,4.86
2023-02-03T20:02:59.729Z,4.81
2023-02-03T20:05:42.500Z,4.85
2023-02-03T20:08:25.329Z,4.98
2023-02-03T20:11:08.133Z,4.92
2023-02-03T20:13:52.901Z,4.93
2023-02-03T20:16:35.709Z,4.77
2023-02-03T20:19:19.576Z,5.00
2023-02-03T20:22:02.374Z,5.04
2023-02-03T20:24:45.293Z,4.95
2023-02-03T20:27:28.116Z,4.63
2023-02-03T20:30:13.956Z,4.85
2023-02-03T20:32:56.774Z,4.72
2023-02-03T20:35:39.666Z,4.82
2023-02-03T20:38:22.485Z,4.75
2023-02-03T20:41:09.775Z,4.62
2023-02-03T20:43:52.575Z,4.78
2023-02-03T20:46:36.772Z,4.73
2023-02-03T20:49:19.870Z,4.94
2023-02-03T20:52:02.645Z,4.69
2023-02-03T20:54:46.192Z,4.69
2023-02-03T20:57:28.991Z,4.67
2023-02-03T21:00:16.581Z,4.73
2023-02-03T21:03:18.749Z,4.62
2023-02-03T21:06:01.558Z,4.60
2023-02-03T21:08:45.446Z,4.72
2023-02-03T21:11:30.537Z,4.77
2023-02-03T21:14:20.678Z,4.74
2023-02-03T21:17:03.495Z,4.59
2023-02-03T21:19:48.014Z,4.48
2023-02-03T21:22:33.233Z,4.53
2023-02-03T21:25:27.312Z,4.66
2023-02-03T21:28:24.569Z,4.77
2023-02-03T21:31:16.181Z,4.55
2023-02-03T21:34:00.548Z,4.31
2023-02-03T21:36:44.672Z,4.57
2023-02-03T21:39:30.121Z,4.47
2023-02-03T21:42:46.299Z,4.36
2023-02-03T21:45:42.051Z,4.43
2023-02-03T21:48:32.075Z,4.25
2023-02-03T21:51:17.751Z,4.26
2023-02-03T21:54:03.393Z,4.51
2023-02-03T21:56:46.391Z,4.51
2023-02-03T21:59:38.521Z,4.20
2023-02-03T22:02:45.241Z,4.43
2023-02-03T22:05:28.068Z,4.32
2023-02-03T22:08:18.232Z,4.40
2023-02-03T22:11:02.377Z,4.51
2023-02-03T22:13:45.575Z,4.44
2023-02-03T22:16:29.260Z,4.26
2023-02-03T22:19:12.310Z,4.16
2023-02-03T22:21:55.190Z,4.57
2023-02-03T22:24:38.087Z,4.61
2023-02-03T22:27:25.092Z,4.63
2023-02-03T22:30:09.223Z,4.55
2023-02-03T22:32:52.018Z,4.57
2023-02-03T22:35:34.804Z,4.59
2023-02-03T22:38:17.820Z,4.51
2023-02-03T22:41:00.757Z,4.66
2023-02-03T22:43:44.944Z,4.44
2023-02-03T22:46:27.838Z,4.50
2023-02-03T22:49:10.702Z,4.60
2023-02-03T22:51:53.461Z,4.42
2023-02-03T22:54:36.853Z,4.54
2023-02-03T22:57:19.679Z,4.50
2023-02-03T23:00:04.263Z,4.43
2023-02-03T23:02:48.474Z,4.31
2023-02-03T23:05:31.659Z,4.55
2023-02-03T23:08:14.586Z,4.41
2023-02-03T23:10:57.400Z,4.54
2023-02-03T23:13:40.213Z,4.63
2023-02-03T23:16:24.409Z,3.98
2023-02-03T23:19:07.252Z,4.32
2023-02-03T23:21:50.017Z,4.42
2023-02-03T23:24:32.808Z,4.41
2023-02-03T23:27:15.588Z,4.33
2023-02-03T23:29:58.445Z,4.57
2023-02-03T23:32:42.715Z,4.66
2023-02-03T23:35:43.321Z,4.53
2023-02-03T23:38:26.170Z,4.63
2023-02-03T23:41:08.960Z,4.34
2023-02-03T23:43:51.910Z,4.62
2023-02-03T23:46:34.809Z,4.62
2023-02-03T23:49:18.970Z,4.75
2023-02-03T23:52:01.771Z,4.53
2023-02-03T23:54:44.569Z,4.63
2023-02-03T23:57:27.375Z,4.73
